sensor_id;sensor_type;location;lat;lon;timestamp;pressure;altitude;pressure_sealevel;temperature;humidity
41862;BME280;27537;57.134;-2.136;2023-12-14T00:01:56;100285.03;;;4.81;100.00
41862;BME280;27537;57.134;-2.136;2023-12-14T00:04:23;100275.59;;;4.79;100.00
41862;BME280;27537;57.134;-2.136;2023-12-14T00:06:50;100273.09;;;4.72;100.00
41862;BME280;27537;57.134;-2.136;2023-12-14T00:09:16;100277.38;;;4.77;100.00
41862;BME280;27537;57.134;-2.136;2023-12-14T00:11:43;100285.16;;;4.77;100.00
41862;BME280;27537;57.134;-2.136;2023-12-14T00:14:10;100289.44;;;4.78;100.00
41862;BME280;27537;57.134;-2.136;2023-12-14T00:16:36;100282.47;;;4.80;100.00
41862;BME280;27537;57.134;-2.136;2023-12-14T00:19:03;100277.53;;;4.67;100.00
41862;BME280;27537;57.134;-2.136;2023-12-14T00:21:30;100281.63;;;4.79;100.00
41862;BME280;27537;57.134;-2.136;2023-12-14T00:23:56;100279.75;;;4.86;100.00
41862;BME280;27537;57.134;-2.136;2023-12-14T00:26:23;100269.19;;;4.93;100.00
41862;BME280;27537;57.134;-2.136;2023-12-14T00:28:50;100270.88;;;4.96;100.00
41862;BME280;27537;57.134;-2.136;2023-12-14T00:31:23;100256.22;;;4.93;100.00
41862;BME280;27537;57.134;-2.136;2023-12-14T00:33:50;100263.38;;;4.84;100.00
41862;BME280;27537;57.134;-2.136;2023-12-14T00:36:20;100272.56;;;4.99;100.00
41862;BME280;27537;57.134;-2.136;2023-12-14T00:38:46;100266.63;;;4.92;100.00
41862;BME280;27537;57.134;-2.136;2023-12-14T00:41:13;100253.06;;;4.81;100.00
41862;BME280;27537;57.134;-2.136;2023-12-14T00:43:40;100266.97;;;4.78;100.00
41862;BME280;27537;57.134;-2.136;2023-12-14T00:46:07;100262.59;;;4.80;100.00
41862;BME280;27537;57.134;-2.136;2023-12-14T00:48:34;100248.63;;;4.86;100.00
41862;BME280;27537;57.134;-2.136;2023-12-14T00:51:01;100217.63;;;4.80;100.00
41862;BME280;27537;57.134;-2.136;2023-12-14T00:53:27;100248.72;;;4.81;100.00
41862;BME280;27537;57.134;-2.136;2023-12-14T00:55:54;100241.22;;;4.67;100.00
41862;BME280;27537;57.134;-2.136;2023-12-14T00:58:21;100253.47;;;5.01;100.00
41862;BME280;27537;57.134;-2.136;2023-12-14T01:00:47;100235.44;;;4.95;100.00
41862;BME280;27537;57.134;-2.136;2023-12-14T01:03:14;100239.56;;;5.04;100.00
41862;BME280;27537;57.134;-2.136;2023-12-14T01:05:41;100246.84;;;4.88;100.00
41862;BME280;27537;57.134;-2.136;2023-12-14T01:08:08;100230.34;;;4.90;100.00
41862;BME280;27537;57.134;-2.136;2023-12-14T01:10:35;100236.44;;;4.89;100.00
41862;BME280;27537;57.134;-2.136;2023-12-14T01:13:02;100213.84;;;4.94;100.00
41862;BME280;27537;57.134;-2.136;2023-12-14T01:15:28;100223.69;;;4.80;100.00
41862;BME280;27537;57.134;-2.136;2023-12-14T01:17:55;100236.72;;;4.75;100.00
41862;BME280;27537;57.134;-2.136;2023-12-14T01:20:22;100222.75;;;4.83;100.00
41862;BME280;27537;57.134;-2.136;2023-12-14T01:22:49;100227.53;;;5.01;100.00
41862;BME280;27537;57.134;-2.136;2023-12-14T01:25:16;100209.16;;;4.71;100.00
41862;BME280;27537;57.134;-2.136;2023-12-14T01:27:43;100220.16;;;4.83;100.00
41862;BME280;27537;57.134;-2.136;2023-12-14T01:30:10;100219.34;;;4.81;100.00
41862;BME280;27537;57.134;-2.136;2023-12-14T01:32:37;100224.44;;;4.85;100.00
41862;BME280;27537;57.134;-2.136;2023-12-14T01:35:04;100225.28;;;4.86;100.00
41862;BME280;27537;57.134;-2.136;2023-12-14T01:37:31;100208.94;;;4.82;100.00
41862;BME280;27537;57.134;-2.136;2023-12-14T01:39:58;100208.13;;;4.80;100.00
41862;BME280;27537;57.134;-2.136;2023-12-14T01:42:24;100211.66;;;4.74;100.00
41862;BME280;27537;57.134;-2.136;2023-12-14T01:44:52;100211.56;;;4.81;100.00
41862;BME280;27537;57.134;-2.136;2023-12-14T01:47:19;100199.59;;;4.73;100.00
41862;BME280;27537;57.134;-2.136;2023-12-14T01:49:45;100201.22;;;4.79;100.00
41862;BME280;27537;57.134;-2.136;2023-12-14T01:52:12;100196.56;;;4.93;100.00
41862;BME280;27537;57.134;-2.136;2023-12-14T01:54:39;100195.97;;;4.82;100.00
41862;BME280;27537;57.134;-2.136;2023-12-14T01:57:05;100193.59;;;4.71;100.00
41862;BME280;27537;57.134;-2.136;2023-12-14T01:59:32;100200.41;;;4.77;100.00
41862;BME280;27537;57.134;-2.136;2023-12-14T02:01:59;100201.97;;;4.84;100.00
41862;BME280;27537;57.134;-2.136;2023-12-14T02:04:26;100205.91;;;4.62;100.00
41862;BME280;27537;57.134;-2.136;2023-12-14T02:06:52;100202.56;;;4.95;100.00
41862;BME280;27537;57.134;-2.136;2023-12-14T02:09:19;100200.97;;;4.90;100.00
41862;BME280;27537;57.134;-2.136;2023-12-14T02:11:46;100202.56;;;4.95;100.00
41862;BME280;27537;57.134;-2.136;2023-12-14T02:14:13;100200.06;;;4.92;100.00
41862;BME280;27537;57.134;-2.136;2023-12-14T02:16:39;100205.78;;;5.07;100.00
41862;BME280;27537;57.134;-2.136;2023-12-14T02:19:06;100192.53;;;4.82;100.00
41862;BME280;27537;57.134;-2.136;2023-12-14T02:21:33;100189.72;;;4.91;100.00
41862;BME280;27537;57.134;-2.136;2023-12-14T02:24:00;100183.44;;;5.01;100.00
41862;BME280;27537;57.134;-2.136;2023-12-14T02:26:26;100187.41;;;5.14;100.00
41862;BME280;27537;57.134;-2.136;2023-12-14T02:28:53;100172.16;;;5.01;100.00
41862;BME280;27537;57.134;-2.136;2023-12-14T02:31:20;100174.22;;;4.88;100.00
41862;BME280;27537;57.134;-2.136;2023-12-14T02:33:47;100174.25;;;4.86;100.00
41862;BME280;27537;57.134;-2.136;2023-12-14T02:36:14;100176.91;;;4.83;100.00
41862;BME280;27537;57.134;-2.136;2023-12-14T02:38:40;100179.16;;;4.99;100.00
41862;BME280;27537;57.134;-2.136;2023-12-14T02:41:07;100168.56;;;5.06;100.00
41862;BME280;27537;57.134;-2.136;2023-12-14T02:43:34;100153.50;;;4.86;100.00
41862;BME280;27537;57.134;-2.136;2023-12-14T02:46:01;100159.03;;;5.08;100.00
41862;BME280;27537;57.134;-2.136;2023-12-14T02:48:29;100157.09;;;5.17;100.00
41862;BME280;27537;57.134;-2.136;2023-12-14T02:50:56;100148.78;;;5.02;100.00
41862;BME280;27537;57.134;-2.136;2023-12-14T02:53:23;100129.53;;;4.77;100.00
41862;BME280;27537;57.134;-2.136;2023-12-14T02:55:49;100141.44;;;4.85;100.00
41862;BME280;27537;57.134;-2.136;2023-12-14T02:58:18;100129.81;;;5.00;100.00
41862;BME280;27537;57.134;-2.136;2023-12-14T03:00:45;100115.31;;;4.91;100.00
41862;BME280;27537;57.134;-2.136;2023-12-14T03:03:12;100119.69;;;4.89;100.00
41862;BME280;27537;57.134;-2.136;2023-12-14T03:05:38;100109.47;;;4.83;100.00
41862;BME280;27537;57.134;-2.136;2023-12-14T03:08:05;100107.00;;;4.79;100.00
41862;BME280;27537;57.134;-2.136;2023-12-14T03:10:32;100087.72;;;4.89;100.00
41862;BME280;27537;57.134;-2.136;2023-12-14T03:12:58;100077.34;;;4.89;100.00
41862;BME280;27537;57.134;-2.136;2023-12-14T03:15:25;100066.34;;;4.79;100.00
41862;BME280;27537;57.134;-2.136;2023-12-14T03:17:52;100057.44;;;4.89;100.00
41862;BME280;27537;57.134;-2.136;2023-12-14T03:20:18;100062.69;;;4.86;100.00
41862;BME280;27537;57.134;-2.136;2023-12-14T03:22:45;100049.63;;;4.91;100.00
41862;BME280;27537;57.134;-2.136;2023-12-14T03:25:12;100033.84;;;4.64;100.00
41862;BME280;27537;57.134;-2.136;2023-12-14T03:27:39;100036.00;;;4.81;100.00
41862;BME280;27537;57.134;-2.136;2023-12-14T03:30:06;100013.34;;;4.89;100.00
41862;BME280;27537;57.134;-2.136;2023-12-14T03:32:37;100039.34;;;4.86;100.00
41862;BME280;27537;57.134;-2.136;2023-12-14T03:35:04;100042.84;;;4.85;100.00
41862;BME280;27537;57.134;-2.136;2023-12-14T03:37:31;100045.81;;;5.04;100.00
41862;BME280;27537;57.134;-2.136;2023-12-14T03:39:58;100029.41;;;5.04;100.00
41862;BME280;27537;57.134;-2.136;2023-12-14T03:42:25;100020.59;;;5.09;100.00
41862;BME280;27537;57.134;-2.136;2023-12-14T03:44:51;100010.28;;;5.06;100.00
41862;BME280;27537;57.134;-2.136;2023-12-14T03:47:18;100010.50;;;4.99;100.00
41862;BME280;27537;57.134;-2.136;2023-12-14T03:49:45;100019.91;;;5.03;100.00
41862;BME280;27537;57.134;-2.136;2023-12-14T03:52:11;100019.88;;;5.04;100.00
41862;BME280;27537;57.134;-2.136;2023-12-14T03:54:38;100005.06;;;5.08;100.00
41862;BME280;27537;57.134;-2.136;2023-12-14T03:57:05;100012.56;;;5.19;100.00
41862;BME280;27537;57.134;-2.136;2023-12-14T03:59:32;100003.19;;;5.13;100.00
41862;BME280;27537;57.134;-2.136;2023-12-14T04:01:59;100015.81;;;5.27;100.00
41862;BME280;27537;57.134;-2.136;2023-12-14T04:04:26;100011.72;;;5.18;100.00
41862;BME280;27537;57.134;-2.136;2023-12-14T04:06:52;99998.91;;;5.12;100.00
41862;BME280;27537;57.134;-2.136;2023-12-14T04:09:19;99999.16;;;5.34;100.00
41862;BME280;27537;57.134;-2.136;2023-12-14T04:11:46;99991.69;;;5.23;100.00
41862;BME280;27537;57.134;-2.136;2023-12-14T04:14:13;99991.75;;;5.20;100.00
41862;BME280;27537;57.134;-2.136;2023-12-14T04:16:39;99991.66;;;5.25;100.00
41862;BME280;27537;57.134;-2.136;2023-12-14T04:19:06;99989.63;;;5.35;100.00
41862;BME280;27537;57.134;-2.136;2023-12-14T04:21:37;99987.97;;;5.32;100.00
41862;BME280;27537;57.134;-2.136;2023-12-14T04:24:04;99998.31;;;5.33;100.00
41862;BME280;27537;57.134;-2.136;2023-12-14T04:26:30;99975.81;;;5.34;100.00
41862;BME280;27537;57.134;-2.136;2023-12-14T04:28:57;99983.94;;;5.53;100.00
41862;BME280;27537;57.134;-2.136;2023-12-14T04:31:24;99983.50;;;5.68;100.00
41862;BME280;27537;57.134;-2.136;2023-12-14T04:33:51;99994.41;;;5.50;100.00
41862;BME280;27537;57.134;-2.136;2023-12-14T04:36:17;99985.56;;;5.56;100.00
41862;BME280;27537;57.134;-2.136;2023-12-14T04:38:44;99996.69;;;5.61;100.00
41862;BME280;27537;57.134;-2.136;2023-12-14T04:41:13;99991.44;;;5.62;100.00
41862;BME280;27537;57.134;-2.136;2023-12-14T04:43:40;99992.53;;;5.55;100.00
41862;BME280;27537;57.134;-2.136;2023-12-14T04:46:07;100003.03;;;5.50;100.00
41862;BME280;27537;57.134;-2.136;2023-12-14T04:48:33;99994.00;;;5.64;100.00
41862;BME280;27537;57.134;-2.136;2023-12-14T04:51:00;99990.56;;;5.63;100.00
41862;BME280;27537;57.134;-2.136;2023-12-14T04:53:27;100007.75;;;5.67;100.00
41862;BME280;27537;57.134;-2.136;2023-12-14T04:55:53;100011.59;;;5.84;100.00
41862;BME280;27537;57.134;-2.136;2023-12-14T04:58:20;100018.88;;;5.73;100.00
41862;BME280;27537;57.134;-2.136;2023-12-14T05:00:47;100019.25;;;5.88;100.00
41862;BME280;27537;57.134;-2.136;2023-12-14T05:03:14;100005.13;;;5.99;100.00
41862;BME280;27537;57.134;-2.136;2023-12-14T05:05:40;100005.78;;;5.76;100.00
41862;BME280;27537;57.134;-2.136;2023-12-14T05:08:07;100010.47;;;5.63;100.00
41862;BME280;27537;57.134;-2.136;2023-12-14T05:10:34;100020.63;;;5.72;100.00
41862;BME280;27537;57.134;-2.136;2023-12-14T05:13:02;100036.50;;;5.91;100.00
41862;BME280;27537;57.134;-2.136;2023-12-14T05:15:29;100029.38;;;5.68;100.00
41862;BME280;27537;57.134;-2.136;2023-12-14T05:17:57;100025.97;;;5.66;100.00
41862;BME280;27537;57.134;-2.136;2023-12-14T05:20:24;100033.69;;;5.69;100.00
41862;BME280;27537;57.134;-2.136;2023-12-14T05:22:51;100039.28;;;5.85;100.00
41862;BME280;27537;57.134;-2.136;2023-12-14T05:25:17;100032.69;;;5.73;100.00
41862;BME280;27537;57.134;-2.136;2023-12-14T05:27:44;100035.06;;;5.51;100.00
41862;BME280;27537;57.134;-2.136;2023-12-14T05:30:11;100027.28;;;5.51;100.00
41862;BME280;27537;57.134;-2.136;2023-12-14T05:32:38;100037.19;;;5.66;100.00
41862;BME280;27537;57.134;-2.136;2023-12-14T05:35:06;100033.72;;;5.36;100.00
41862;BME280;27537;57.134;-2.136;2023-12-14T05:37:33;100029.09;;;5.47;100.00
41862;BME280;27537;57.134;-2.136;2023-12-14T05:40:00;100045.41;;;5.53;100.00
41862;BME280;27537;57.134;-2.136;2023-12-14T05:42:26;100047.06;;;5.55;100.00
41862;BME280;27537;57.134;-2.136;2023-12-14T05:44:53;100043.16;;;5.40;100.00
41862;BME280;27537;57.134;-2.136;2023-12-14T05:47:20;100039.72;;;5.38;100.00
41862;BME280;27537;57.134;-2.136;2023-12-14T05:49:46;100055.25;;;5.40;100.00
41862;BME280;27537;57.134;-2.136;2023-12-14T05:52:13;100036.19;;;5.41;100.00
41862;BME280;27537;57.134;-2.136;2023-12-14T05:54:40;100065.19;;;5.57;100.00
41862;BME280;27537;57.134;-2.136;2023-12-14T05:57:07;100062.91;;;5.46;100.00
41862;BME280;27537;57.134;-2.136;2023-12-14T05:59:34;100071.56;;;5.45;100.00
41862;BME280;27537;57.134;-2.136;2023-12-14T06:02:01;100076.38;;;5.59;100.00
41862;BME280;27537;57.134;-2.136;2023-12-14T06:04:28;100063.78;;;5.45;100.00
41862;BME280;27537;57.134;-2.136;2023-12-14T06:06:54;100070.59;;;5.49;100.00
41862;BME280;27537;57.134;-2.136;2023-12-14T06:09:21;100068.81;;;5.51;100.00
41862;BME280;27537;57.134;-2.136;2023-12-14T06:11:52;100066.44;;;5.42;100.00
41862;BME280;27537;57.134;-2.136;2023-12-14T06:14:18;100035.88;;;5.20;100.00
41862;BME280;27537;57.134;-2.136;2023-12-14T06:16:45;100070.09;;;5.35;100.00
41862;BME280;27537;57.134;-2.136;2023-12-14T06:19:12;100055.66;;;5.26;100.00
41862;BME280;27537;57.134;-2.136;2023-12-14T06:21:40;100062.03;;;5.12;100.00
41862;BME280;27537;57.134;-2.136;2023-12-14T06:24:07;100058.69;;;5.09;100.00
41862;BME280;27537;57.134;-2.136;2023-12-14T06:26:34;100070.56;;;5.18;100.00
41862;BME280;27537;57.134;-2.136;2023-12-14T06:29:00;100072.53;;;5.08;100.00
41862;BME280;27537;57.134;-2.136;2023-12-14T06:31:27;100075.56;;;5.24;100.00
41862;BME280;27537;57.134;-2.136;2023-12-14T06:33:54;100068.00;;;5.16;100.00
41862;BME280;27537;57.134;-2.136;2023-12-14T06:36:25;100068.72;;;5.23;100.00
41862;BME280;27537;57.134;-2.136;2023-12-14T06:38:57;100074.25;;;5.09;100.00
41862;BME280;27537;57.134;-2.136;2023-12-14T06:41:25;100072.34;;;5.16;100.00
41862;BME280;27537;57.134;-2.136;2023-12-14T06:43:52;100063.69;;;5.15;100.00
41862;BME280;27537;57.134;-2.136;2023-12-14T06:46:19;100069.97;;;5.06;100.00
41862;BME280;27537;57.134;-2.136;2023-12-14T06:48:47;100085.38;;;5.14;100.00
41862;BME280;27537;57.134;-2.136;2023-12-14T06:51:14;100079.38;;;5.12;100.00
41862;BME280;27537;57.134;-2.136;2023-12-14T06:53:42;100082.63;;;5.19;100.00
41862;BME280;27537;57.134;-2.136;2023-12-14T06:56:09;100076.72;;;5.13;100.00
41862;BME280;27537;57.134;-2.136;2023-12-14T06:58:39;100073.19;;;5.16;100.00
41862;BME280;27537;57.134;-2.136;2023-12-14T07:01:07;100070.69;;;5.11;100.00
41862;BME280;27537;57.134;-2.136;2023-12-14T07:03:34;100083.75;;;5.10;100.00
41862;BME280;27537;57.134;-2.136;2023-12-14T07:06:01;100077.72;;;5.08;100.00
41862;BME280;27537;57.134;-2.136;2023-12-14T07:08:27;100088.00;;;5.12;100.00
41862;BME280;27537;57.134;-2.136;2023-12-14T07:10:54;100080.41;;;5.05;100.00
41862;BME280;27537;57.134;-2.136;2023-12-14T07:13:21;100089.16;;;5.01;100.00
41862;BME280;27537;57.134;-2.136;2023-12-14T07:15:48;100076.38;;;4.93;100.00
41862;BME280;27537;57.134;-2.136;2023-12-14T07:18:14;100078.03;;;4.95;100.00
41862;BME280;27537;57.134;-2.136;2023-12-14T07:20:41;100095.25;;;5.00;100.00
41862;BME280;27537;57.134;-2.136;2023-12-14T07:23:08;100104.56;;;5.07;100.00
41862;BME280;27537;57.134;-2.136;2023-12-14T07:25:35;100109.88;;;5.02;100.00
41862;BME280;27537;57.134;-2.136;2023-12-14T07:28:01;100102.38;;;4.90;100.00
41862;BME280;27537;57.134;-2.136;2023-12-14T07:30:28;100104.88;;;4.94;100.00
41862;BME280;27537;57.134;-2.136;2023-12-14T07:32:55;100109.34;;;4.88;100.00
41862;BME280;27537;57.134;-2.136;2023-12-14T07:35:22;100125.63;;;4.94;100.00
41862;BME280;27537;57.134;-2.136;2023-12-14T07:37:49;100122.06;;;4.99;100.00
41862;BME280;27537;57.134;-2.136;2023-12-14T07:40:16;100122.97;;;4.98;100.00
41862;BME280;27537;57.134;-2.136;2023-12-14T07:42:43;100112.72;;;4.91;100.00
41862;BME280;27537;57.134;-2.136;2023-12-14T07:45:10;100129.84;;;4.99;100.00
41862;BME280;27537;57.134;-2.136;2023-12-14T07:47:37;100121.31;;;4.93;100.00
41862;BME280;27537;57.134;-2.136;2023-12-14T07:50:04;100106.25;;;4.73;100.00
41862;BME280;27537;57.134;-2.136;2023-12-14T07:52:31;100106.19;;;4.77;100.00
41862;BME280;27537;57.134;-2.136;2023-12-14T07:54:58;100132.72;;;4.86;100.00
41862;BME280;27537;57.134;-2.136;2023-12-14T07:57:24;100152.63;;;4.87;100.00
41862;BME280;27537;57.134;-2.136;2023-12-14T07:59:51;100162.91;;;4.90;100.00
41862;BME280;27537;57.134;-2.136;2023-12-14T08:02:17;100157.00;;;4.85;100.00
41862;BME280;27537;57.134;-2.136;2023-12-14T08:04:44;100175.09;;;4.87;100.00
41862;BME280;27537;57.134;-2.136;2023-12-14T08:07:11;100183.78;;;4.86;100.00
41862;BME280;27537;57.134;-2.136;2023-12-14T08:09:37;100167.66;;;4.73;100.00
41862;BME280;27537;57.134;-2.136;2023-12-14T08:12:04;100188.31;;;4.76;100.00
41862;BME280;27537;57.134;-2.136;2023-12-14T08:14:35;100178.00;;;4.73;100.00
41862;BME280;27537;57.134;-2.136;2023-12-14T08:17:04;100190.50;;;4.55;100.00
41862;BME280;27537;57.134;-2.136;2023-12-14T08:19:31;100199.06;;;4.59;100.00
41862;BME280;27537;57.134;-2.136;2023-12-14T08:21:58;100203.44;;;4.57;100.00
41862;BME280;27537;57.134;-2.136;2023-12-14T08:24:25;100199.31;;;4.47;100.00
41862;BME280;27537;57.134;-2.136;2023-12-14T08:26:51;100202.06;;;4.39;100.00
41862;BME280;27537;57.134;-2.136;2023-12-14T08:29:18;100196.31;;;4.25;100.00
41862;BME280;27537;57.134;-2.136;2023-12-14T08:31:45;100213.38;;;4.35;100.00
41862;BME280;27537;57.134;-2.136;2023-12-14T08:34:11;100221.88;;;4.42;100.00
41862;BME280;27537;57.134;-2.136;2023-12-14T08:36:38;100228.72;;;4.46;100.00
41862;BME280;27537;57.134;-2.136;2023-12-14T08:39:05;100243.44;;;4.44;100.00
41862;BME280;27537;57.134;-2.136;2023-12-14T08:41:32;100239.03;;;4.49;100.00
41862;BME280;27537;57.134;-2.136;2023-12-14T08:43:58;100239.91;;;4.48;100.00
41862;BME280;27537;57.134;-2.136;2023-12-14T08:46:25;100231.47;;;4.38;100.00
41862;BME280;27537;57.134;-2.136;2023-12-14T08:48:52;100236.84;;;4.29;100.00
41862;BME280;27537;57.134;-2.136;2023-12-14T08:51:19;100231.69;;;4.27;100.00
41862;BME280;27537;57.134;-2.136;2023-12-14T08:53:47;100235.84;;;4.34;100.00
41862;BME280;27537;57.134;-2.136;2023-12-14T08:56:14;100241.84;;;4.38;100.00
41862;BME280;27537;57.134;-2.136;2023-12-14T08:58:41;100231.63;;;4.30;100.00
41862;BME280;27537;57.134;-2.136;2023-12-14T09:01:08;100246.22;;;4.34;100.00
41862;BME280;27537;57.134;-2.136;2023-12-14T09:03:34;100250.66;;;4.29;100.00
41862;BME280;27537;57.134;-2.136;2023-12-14T09:06:01;100264.44;;;4.30;100.00
41862;BME280;27537;57.134;-2.136;2023-12-14T09:08:32;100273.81;;;4.37;100.00
41862;BME280;27537;57.134;-2.136;2023-12-14T09:10:58;100260.41;;;4.16;100.00
41862;BME280;27537;57.134;-2.136;2023-12-14T09:13:25;100275.03;;;4.19;100.00
41862;BME280;27537;57.134;-2.136;2023-12-14T09:15:51;100289.59;;;4.25;100.00
41862;BME280;27537;57.134;-2.136;2023-12-14T09:18:20;100290.50;;;4.24;100.00
41862;BME280;27537;57.134;-2.136;2023-12-14T09:20:49;100289.75;;;4.17;100.00
41862;BME280;27537;57.134;-2.136;2023-12-14T09:23:16;100294.16;;;4.12;100.00
41862;BME280;27537;57.134;-2.136;2023-12-14T09:25:43;100298.53;;;4.08;100.00
41862;BME280;27537;57.134;-2.136;2023-12-14T09:28:10;100298.59;;;4.05;100.00
41862;BME280;27537;57.134;-2.136;2023-12-14T09:30:37;100308.94;;;4.05;100.00
41862;BME280;27537;57.134;-2.136;2023-12-14T09:33:04;100317.69;;;3.99;100.00
41862;BME280;27537;57.134;-2.136;2023-12-14T09:35:31;100318.47;;;4.05;100.00
41862;BME280;27537;57.134;-2.136;2023-12-14T09:37:57;100301.31;;;3.99;100.00
41862;BME280;27537;57.134;-2.136;2023-12-14T09:40:24;100315.84;;;4.06;100.00
41862;BME280;27537;57.134;-2.136;2023-12-14T09:42:51;100308.03;;;4.09;100.00
41862;BME280;27537;57.134;-2.136;2023-12-14T09:45:20;100318.28;;;4.15;100.00
41862;BME280;27537;57.134;-2.136;2023-12-14T09:47:51;100319.88;;;4.23;100.00
41862;BME280;27537;57.134;-2.136;2023-12-14T09:50:20;100335.31;;;4.30;100.00
41862;BME280;27537;57.134;-2.136;2023-12-14T09:52:47;100327.44;;;4.35;100.00
41862;BME280;27537;57.134;-2.136;2023-12-14T09:55:16;100331.66;;;4.39;100.00
41862;BME280;27537;57.134;-2.136;2023-12-14T09:57:42;100320.34;;;4.45;100.00
41862;BME280;27537;57.134;-2.136;2023-12-14T10:00:09;100334.97;;;4.47;100.00
41862;BME280;27537;57.134;-2.136;2023-12-14T10:02:40;100344.09;;;4.67;100.00
41862;BME280;27537;57.134;-2.136;2023-12-14T10:05:10;100349.19;;;4.73;100.00
41862;BME280;27537;57.134;-2.136;2023-12-14T10:07:41;100336.13;;;4.78;100.00
41862;BME280;27537;57.134;-2.136;2023-12-14T10:10:11;100342.22;;;4.77;100.00
41862;BME280;27537;57.134;-2.136;2023-12-14T10:12:52;100338.47;;;4.88;100.00
41862;BME280;27537;57.134;-2.136;2023-12-14T10:15:22;100338.44;;;4.91;100.00
41862;BME280;27537;57.134;-2.136;2023-12-14T10:17:52;100329.84;;;4.89;100.00
41862;BME280;27537;57.134;-2.136;2023-12-14T10:20:21;100342.75;;;4.92;100.00
41862;BME280;27537;57.134;-2.136;2023-12-14T10:22:52;100342.44;;;5.06;100.00
41862;BME280;27537;57.134;-2.136;2023-12-14T10:25:19;100335.66;;;4.99;100.00
41862;BME280;27537;57.134;-2.136;2023-12-14T10:27:47;100339.69;;;5.14;100.00
41862;BME280;27537;57.134;-2.136;2023-12-14T10:30:14;100344.78;;;5.19;100.00
41862;BME280;27537;57.134;-2.136;2023-12-14T10:32:41;100345.38;;;5.31;100.00
41862;BME280;27537;57.134;-2.136;2023-12-14T10:35:08;100348.84;;;5.30;100.00
41862;BME280;27537;57.134;-2.136;2023-12-14T10:37:37;100358.78;;;5.50;100.00
41862;BME280;27537;57.134;-2.136;2023-12-14T10:40:11;100362.16;;;5.54;100.00
41862;BME280;27537;57.134;-2.136;2023-12-14T10:42:42;100368.88;;;5.63;100.00
41862;BME280;27537;57.134;-2.136;2023-12-14T10:45:12;100362.84;;;5.62;100.00
41862;BME280;27537;57.134;-2.136;2023-12-14T10:47:47;100373.16;;;5.67;100.00
41862;BME280;27537;57.134;-2.136;2023-12-14T10:50:15;100374.94;;;5.65;100.00
41862;BME280;27537;57.134;-2.136;2023-12-14T10:52:42;100386.69;;;5.80;100.00
41862;BME280;27537;57.134;-2.136;2023-12-14T10:55:15;100395.09;;;5.89;100.00
41862;BME280;27537;57.134;-2.136;2023-12-14T10:57:45;100404.72;;;5.86;100.00
41862;BME280;27537;57.134;-2.136;2023-12-14T11:00:15;100394.16;;;5.94;100.00
41862;BME280;27537;57.134;-2.136;2023-12-14T11:02:46;100398.34;;;6.01;100.00
41862;BME280;27537;57.134;-2.136;2023-12-14T11:05:14;100405.41;;;5.96;100.00
41862;BME280;27537;57.134;-2.136;2023-12-14T11:07:46;100405.94;;;6.10;100.00
41862;BME280;27537;57.134;-2.136;2023-12-14T11:10:14;100407.03;;;6.00;100.00
41862;BME280;27537;57.134;-2.136;2023-12-14T11:12:54;100416.19;;;6.16;100.00
41862;BME280;27537;57.134;-2.136;2023-12-14T11:15:22;100422.97;;;6.22;100.00
41862;BME280;27537;57.134;-2.136;2023-12-14T11:23:29;100422.84;;;6.26;100.00
41862;BME280;27537;57.134;-2.136;2023-12-14T11:26:09;100420.22;;;6.28;100.00
41862;BME280;27537;57.134;-2.136;2023-12-14T11:28:37;100422.88;;;6.25;100.00
41862;BME280;27537;57.134;-2.136;2023-12-14T11:31:05;100407.72;;;6.08;100.00
41862;BME280;27537;57.134;-2.136;2023-12-14T11:33:35;100422.75;;;6.31;100.00
41862;BME280;27537;57.134;-2.136;2023-12-14T11:36:11;100436.69;;;6.29;100.00
41862;BME280;27537;57.134;-2.136;2023-12-14T11:38:38;100432.91;;;6.40;100.00
41862;BME280;27537;57.134;-2.136;2023-12-14T11:41:05;100438.06;;;6.42;100.00
41862;BME280;27537;57.134;-2.136;2023-12-14T11:43:44;100432.84;;;6.43;100.00
41862;BME280;27537;57.134;-2.136;2023-12-14T11:46:12;100438.00;;;6.45;100.00
41862;BME280;27537;57.134;-2.136;2023-12-14T11:48:39;100419.81;;;6.45;100.00
41862;BME280;27537;57.134;-2.136;2023-12-14T11:51:06;100425.56;;;6.56;100.00
41862;BME280;27537;57.134;-2.136;2023-12-14T11:53:33;100428.94;;;6.60;100.00
41862;BME280;27537;57.134;-2.136;2023-12-14T11:56:05;100425.78;;;6.49;100.00
41862;BME280;27537;57.134;-2.136;2023-12-14T11:58:32;100456.50;;;6.67;100.00
41862;BME280;27537;57.134;-2.136;2023-12-14T12:01:18;100472.03;;;6.70;100.00
41862;BME280;27537;57.134;-2.136;2023-12-14T12:03:45;100469.97;;;6.83;100.00
41862;BME280;27537;57.134;-2.136;2023-12-14T12:06:26;100462.91;;;6.88;100.00
41862;BME280;27537;57.134;-2.136;2023-12-14T12:08:57;100444.59;;;6.91;100.00
41862;BME280;27537;57.134;-2.136;2023-12-14T12:11:24;100444.03;;;7.11;100.00
41862;BME280;27537;57.134;-2.136;2023-12-14T12:13:56;100451.44;;;7.27;100.00
41862;BME280;27537;57.134;-2.136;2023-12-14T12:16:24;100446.25;;;7.25;100.00
41862;BME280;27537;57.134;-2.136;2023-12-14T12:18:51;100444.47;;;7.27;100.00
41862;BME280;27537;57.134;-2.136;2023-12-14T12:21:18;100444.00;;;7.13;100.00
41862;BME280;27537;57.134;-2.136;2023-12-14T12:23:45;100438.56;;;7.20;100.00
41862;BME280;27537;57.134;-2.136;2023-12-14T12:26:12;100443.03;;;7.47;100.00
41862;BME280;27537;57.134;-2.136;2023-12-14T12:28:39;100430.88;;;7.47;100.00
41862;BME280;27537;57.134;-2.136;2023-12-14T12:31:05;100438.41;;;7.56;100.00
41862;BME280;27537;57.134;-2.136;2023-12-14T12:33:32;100454.81;;;7.60;100.00
41862;BME280;27537;57.134;-2.136;2023-12-14T12:36:04;100456.69;;;7.55;100.00
41862;BME280;27537;57.134;-2.136;2023-12-14T12:38:32;100457.53;;;7.55;100.00
41862;BME280;27537;57.134;-2.136;2023-12-14T12:40:58;100460.19;;;7.54;100.00
41862;BME280;27537;57.134;-2.136;2023-12-14T12:43:27;100465.31;;;7.57;100.00
41862;BME280;27537;57.134;-2.136;2023-12-14T12:45:54;100475.69;;;7.58;100.00
41862;BME280;27537;57.134;-2.136;2023-12-14T12:48:20;100462.66;;;7.58;100.00